createdAt,value
2023-10-30T00:01:21.045Z,99419.06
2023-10-30T00:03:49.176Z,99418.88
2023-10-30T00:06:16.889Z,99421.97
2023-10-30T00:08:44.704Z,99420.13
2023-10-30T00:11:12.371Z,99427.13
2023-10-30T00:13:39.766Z,99428.59
2023-10-30T00:16:07.300Z,99419.16
2023-10-30T00:18:35.924Z,99425.75
2023-10-30T00:21:03.521Z,99435.06
2023-10-30T00:23:30.914Z,99433.31
2023-10-30T00:25:58.850Z,99429.87
2023-10-30T00:28:28.638Z,99429.87
2023-10-30T00:30:55.994Z,99423.81
2023-10-30T00:33:23.883Z,99422.09
2023-10-30T00:35:51.325Z,99432.72
2023-10-30T00:38:18.770Z,99431.22
2023-10-30T00:40:46.583Z,99423.50
2023-10-30T00:43:14.202Z,99416.50
2023-10-30T00:45:41.967Z,99419.53
2023-10-30T00:48:09.944Z,99424.28
2023-10-30T00:50:37.422Z,99419.75
2023-10-30T00:53:05.116Z,99414.28
2023-10-30T00:55:37.109Z,99409.03
2023-10-30T00:58:08.500Z,99415.22
2023-10-30T01:00:36.350Z,99409.19
2023-10-30T01:03:03.991Z,99405.66
2023-10-30T01:05:31.482Z,99401.94
2023-10-30T01:07:59.148Z,99402.25
2023-10-30T01:10:26.545Z,99404.91
2023-10-30T01:12:53.987Z,99406.03
2023-10-30T01:15:22.849Z,99406.28
2023-10-30T01:17:50.246Z,99396.66
2023-10-30T01:20:17.764Z,99404.44
2023-10-30T01:22:45.406Z,99400.63
2023-10-30T01:25:13.021Z,99399.03
2023-10-30T01:27:40.547Z,99400.13
2023-10-30T01:30:08.642Z,99394.25
2023-10-30T01:32:36.106Z,99399.31
2023-10-30T01:35:03.693Z,99402.84
2023-10-30T01:37:32.052Z,99400.94
2023-10-30T01:39:59.466Z,99390.66
2023-10-30T01:42:26.864Z,99389.56
2023-10-30T01:44:56.361Z,99387.94
2023-10-30T01:47:24.794Z,99389.00
2023-10-30T01:49:56.676Z,99389.91
2023-10-30T01:52:24.351Z,99386.72
2023-10-30T01:54:52.998Z,99388.12
2023-10-30T01:57:23.274Z,99384.88
2023-10-30T01:59:51.952Z,99388.28
2023-10-30T02:02:20.348Z,99380.41
2023-10-30T02:04:48.778Z,99377.78
2023-10-30T02:07:18.685Z,99380.03
2023-10-30T02:09:48.899Z,99380.03
2023-10-30T02:12:16.646Z,99376.50
2023-10-30T02:14:44.405Z,99378.28
2023-10-30T02:17:12.019Z,99381.88
2023-10-30T02:19:39.462Z,99373.38
2023-10-30T02:22:07.197Z,99376.00
2023-10-30T02:24:34.937Z,99376.72
2023-10-30T02:27:02.947Z,99372.47
2023-10-30T02:29:30.582Z,99373.19
2023-10-30T02:31:57.967Z,99377.06
2023-10-30T02:34:25.496Z,99369.88
2023-10-30T02:36:55.282Z,99370.75
2023-10-30T02:39:22.785Z,99378.81
2023-10-30T02:41:50.273Z,99375.31
2023-10-30T02:44:18.932Z,99382.31
2023-10-30T02:46:46.309Z,99394.38
2023-10-30T02:49:13.723Z,99394.62
2023-10-30T02:51:41.433Z,99393.53
2023-10-30T02:54:08.967Z,99382.81
2023-10-30T02:56:36.365Z,99392.31
2023-10-30T02:59:04.043Z,99386.13
2023-10-30T03:01:31.501Z,99385.38
2023-10-30T03:03:59.000Z,99382.63
2023-10-30T03:06:26.884Z,99381.88
2023-10-30T03:08:54.274Z,99390.56
2023-10-30T03:11:21.668Z,99379.06
2023-10-30T03:13:49.323Z,99391.50
2023-10-30T03:16:19.094Z,99391.75
2023-10-30T03:18:46.737Z,99386.47
2023-10-30T03:21:14.556Z,99389.91
2023-10-30T03:23:42.147Z,99394.88
2023-10-30T03:26:10.412Z,99390.72
2023-10-30T03:28:38.054Z,99400.31
2023-10-30T03:31:07.037Z,99400.88
2023-10-30T03:33:34.521Z,99398.63
2023-10-30T03:36:03.230Z,99397.69
2023-10-30T03:38:31.055Z,99398.37
2023-10-30T03:40:58.663Z,99401.94
2023-10-30T03:43:26.452Z,99394.03
2023-10-30T03:45:54.136Z,99400.78
2023-10-30T03:48:21.595Z,99403.56
2023-10-30T03:50:50.719Z,99398.19
2023-10-30T03:53:18.200Z,99392.03
2023-10-30T03:55:45.560Z,99389.59
2023-10-30T03:58:13.509Z,99390.66
2023-10-30T04:00:40.934Z,99382.81
2023-10-30T04:03:09.384Z,99389.66
2023-10-30T04:05:36.862Z,99387.91
2023-10-30T04:08:04.488Z,99384.69
2023-10-30T04:10:32.272Z,99380.78
2023-10-30T04:12:59.679Z,99379.44
2023-10-30T04:15:27.065Z,99381.94
2023-10-30T04:17:57.216Z,99382.84
2023-10-30T04:20:24.763Z,99379.50
2023-10-30T04:22:52.151Z,99375.81
2023-10-30T04:25:20.324Z,99384.47
2023-10-30T04:27:47.838Z,99396.22
2023-10-30T04:30:15.450Z,99394.34
2023-10-30T04:32:43.244Z,99396.81
2023-10-30T04:35:10.643Z,99390.72
2023-10-30T04:37:38.047Z,99386.25
2023-10-30T04:40:06.569Z,99380.91
2023-10-30T04:42:34.050Z,99380.19
2023-10-30T04:45:01.463Z,99381.88
2023-10-30T04:47:29.272Z,99379.81
2023-10-30T04:49:56.698Z,99378.72
2023-10-30T04:52:25.870Z,99378.56
2023-10-30T04:54:53.601Z,99381.88
2023-10-30T04:57:21.012Z,99391.63
2023-10-30T04:59:48.640Z,99387.09
2023-10-30T05:02:16.470Z,99387.53
2023-10-30T05:04:43.865Z,99381.38
2023-10-30T05:07:11.550Z,99392.00
2023-10-30T05:09:39.240Z,99375.25
2023-10-30T05:12:06.743Z,99392.97
2023-10-30T05:14:34.200Z,99388.59
2023-10-30T05:17:01.852Z,99394.75
2023-10-30T05:19:30.358Z,99405.25
2023-10-30T05:21:57.784Z,99402.41
2023-10-30T05:24:25.788Z,99409.28
2023-10-30T05:26:53.750Z,99420.88
2023-10-30T05:29:21.179Z,99409.66
2023-10-30T05:31:49.203Z,99415.88
2023-10-30T05:34:16.678Z,99416.88
2023-10-30T05:36:44.330Z,99421.16
2023-10-30T05:39:12.041Z,99421.87
2023-10-30T05:41:39.489Z,99426.84
2023-10-30T05:44:06.905Z,99417.19
2023-10-30T05:46:34.800Z,99426.25
2023-10-30T05:49:02.222Z,99419.88
2023-10-30T05:51:29.652Z,99428.97
2023-10-30T05:53:57.343Z,99429.25
2023-10-30T05:56:25.064Z,99442.41
2023-10-30T05:58:52.418Z,99437.06
2023-10-30T06:01:20.104Z,99444.50
2023-10-30T06:03:47.848Z,99433.22
2023-10-30T06:06:15.358Z,99440.22
2023-10-30T06:08:42.796Z,99447.81
2023-10-30T06:11:11.660Z,99452.91
2023-10-30T06:13:39.043Z,99456.78
2023-10-30T06:16:06.581Z,99453.94
2023-10-30T06:18:34.273Z,99458.19
2023-10-30T06:21:03.027Z,99452.78
2023-10-30T06:23:30.481Z,99456.75
2023-10-30T06:25:58.170Z,99449.16
2023-10-30T06:28:25.610Z,99468.44
2023-10-30T06:30:53.310Z,99449.59
2023-10-30T06:33:21.076Z,99455.47
2023-10-30T06:35:56.703Z,99452.91
2023-10-30T06:38:24.374Z,99458.22
2023-10-30T06:40:51.818Z,99450.09
2023-10-30T06:43:19.188Z,99457.25
2023-10-30T06:45:46.900Z,99469.25
2023-10-30T06:48:14.305Z,99475.72
2023-10-30T06:50:41.708Z,99475.28
2023-10-30T06:53:09.391Z,99474.13
2023-10-30T06:55:40.174Z,99476.47
2023-10-30T06:58:07.560Z,99478.59
2023-10-30T07:00:35.311Z,99477.03
2023-10-30T07:03:02.837Z,99477.81
2023-10-30T07:05:30.367Z,99478.69
2023-10-30T07:07:58.075Z,99483.69
2023-10-30T07:10:25.526Z,99478.16
2023-10-30T07:12:52.930Z,99474.78
2023-10-30T07:15:21.675Z,99478.13
2023-10-30T07:17:49.355Z,99475.56
2023-10-30T07:20:16.794Z,99482.28
2023-10-30T07:22:44.480Z,99486.34
2023-10-30T07:25:12.372Z,99481.47
2023-10-30T07:27:39.804Z,99475.59
2023-10-30T07:30:09.529Z,99483.88
2023-10-30T07:32:36.965Z,99479.31
2023-10-30T07:35:06.178Z,99492.59
2023-10-30T07:37:37.115Z,99497.28
2023-10-30T07:40:05.133Z,99484.88
2023-10-30T07:42:33.091Z,99489.16
2023-10-30T07:45:00.937Z,99482.72
2023-10-30T07:47:42.816Z,99490.84
2023-10-30T07:50:12.208Z,99491.56
2023-10-30T07:52:42.811Z,99491.50
2023-10-30T07:55:11.384Z,99492.13
2023-10-30T07:57:39.078Z,99498.87
2023-10-30T08:00:08.613Z,99504.81
2023-10-30T08:02:40.561Z,99493.59
2023-10-30T08:05:08.762Z,99500.31
2023-10-30T08:07:37.234Z,99504.91
2023-10-30T08:10:05.112Z,99502.25
2023-10-30T08:12:32.903Z,99494.31
2023-10-30T08:15:01.071Z,99495.00
2023-10-30T08:17:28.837Z,99497.56
2023-10-30T08:19:56.512Z,99498.22
2023-10-30T08:22:23.910Z,99490.03
2023-10-30T08:24:52.506Z,99481.19
2023-10-30T08:27:20.268Z,99484.38
2023-10-30T08:29:47.892Z,99486.97
2023-10-30T08:32:15.450Z,99479.31
2023-10-30T08:34:43.244Z,99479.44
2023-10-30T08:37:10.668Z,99469.91
2023-10-30T08:39:38.431Z,99469.56
2023-10-30T08:42:06.263Z,99468.66
2023-10-30T08:44:36.404Z,99477.84
2023-10-30T08:47:03.786Z,99475.97
2023-10-30T08:49:33.417Z,99473.84
2023-10-30T08:52:04.499Z,99469.16
2023-10-30T08:54:32.780Z,99471.78
2023-10-30T08:59:30.532Z,99462.38
2023-10-30T09:01:59.196Z,99470.59
2023-10-30T09:04:27.024Z,99468.91
2023-10-30T09:06:54.541Z,99477.09
2023-10-30T09:09:22.296Z,99481.31
2023-10-30T09:11:50.258Z,99474.63
2023-10-30T09:14:17.672Z,99479.53
2023-10-30T09:16:45.560Z,99479.25
2023-10-30T09:19:12.953Z,99476.94
2023-10-30T09:21:40.673Z,99479.59
2023-10-30T09:24:08.868Z,99481.22
2023-10-30T09:26:36.552Z,99493.72
2023-10-30T09:29:04.617Z,99496.28
2023-10-30T09:31:34.238Z,99496.78
2023-10-30T09:34:01.854Z,99503.06
2023-10-30T09:36:29.233Z,99483.44
2023-10-30T09:38:57.035Z,99502.19
2023-10-30T09:41:27.969Z,99497.41
2023-10-30T09:43:55.570Z,99488.91
2023-10-30T09:46:29.836Z,99492.59
2023-10-30T09:48:59.167Z,99488.25
2023-10-30T09:51:27.612Z,99485.25
2023-10-30T09:53:56.051Z,99470.62
2023-10-30T09:56:23.707Z,99473.66
2023-10-30T09:58:52.441Z,99476.41
2023-10-30T10:01:20.778Z,99479.25
2023-10-30T10:03:49.228Z,99477.94
2023-10-30T10:06:17.898Z,99483.44
2023-10-30T10:08:45.534Z,99475.81
2023-10-30T10:11:13.280Z,99476.25
2023-10-30T10:13:57.997Z,99472.16
2023-10-30T10:16:32.315Z,99460.97
2023-10-30T10:19:00.156Z,99472.94
2023-10-30T10:21:27.993Z,99480.69
2023-10-30T10:23:55.882Z,99479.94
2023-10-30T10:26:30.809Z,99461.78
2023-10-30T10:28:59.754Z,99467.59
2023-10-30T10:31:27.903Z,99467.34
2023-10-30T10:33:57.742Z,99478.62
2023-10-30T10:36:31.654Z,99470.13
2023-10-30T10:39:00.081Z,99480.28
2023-10-30T10:41:30.398Z,99476.44
2023-10-30T10:44:00.242Z,99479.88
2023-10-30T10:46:27.995Z,99478.66
2023-10-30T10:48:56.063Z,99468.66
2023-10-30T10:51:33.869Z,99468.91
2023-10-30T10:54:08.251Z,99465.69
2023-10-30T10:56:38.351Z,99461.53
2023-10-30T10:59:09.593Z,99453.34
2023-10-30T11:01:39.605Z,99454.69
2023-10-30T11:04:09.572Z,99455.72
2023-10-30T11:06:38.938Z,99462.22
2023-10-30T11:09:15.943Z,99461.09
2023-10-30T11:11:52.635Z,99460.34
2023-10-30T11:14:31.425Z,99453.75
2023-10-30T11:17:03.298Z,99444.72
2023-10-30T11:19:32.515Z,99447.09
2023-10-30T11:22:03.072Z,99450.56
2023-10-30T11:24:42.017Z,99447.91
2023-10-30T11:27:27.983Z,99447.69
2023-10-30T11:29:57.469Z,99440.72
2023-10-30T11:32:26.295Z,99439.03
2023-10-30T11:34:53.707Z,99428.38
2023-10-30T11:37:24.478Z,99436.63
2023-10-30T11:39:54.868Z,99440.88
2023-10-30T11:42:25.633Z,99431.22
2023-10-30T11:44:54.374Z,99426.94
2023-10-30T11:47:25.342Z,99432.25
2023-10-30T11:49:56.789Z,99425.53
2023-10-30T11:52:24.360Z,99406.63
2023-10-30T11:54:52.151Z,99400.00
2023-10-30T11:57:23.799Z,99403.53
2023-10-30T11:59:51.452Z,99412.53
2023-10-30T12:02:19.076Z,99405.91
2023-10-30T12:04:46.804Z,99405.22
2023-10-30T12:07:17.085Z,99394.62
2023-10-30T12:09:44.490Z,99393.38
2023-10-30T12:12:12.323Z,99387.94
2023-10-30T12:14:39.777Z,99389.47
2023-10-30T12:17:07.744Z,99386.00
2023-10-30T12:19:36.589Z,99384.53
2023-10-30T12:22:04.286Z,99380.84
2023-10-30T12:24:31.990Z,99372.88
2023-10-30T12:26:59.710Z,99382.22
2023-10-30T12:29:27.258Z,99377.28
2023-10-30T12:32:00.659Z,99374.72
2023-10-30T12:34:28.734Z,99375.00
2023-10-30T12:36:56.211Z,99366.88
2023-10-30T12:39:25.750Z,99361.91
2023-10-30T12:41:55.193Z,99358.59
2023-10-30T12:44:25.178Z,99371.66
2023-10-30T12:46:52.952Z,99364.47
2023-10-30T12:49:20.452Z,99358.72
2023-10-30T12:51:47.839Z,99348.13
2023-10-30T12:54:15.551Z,99348.88
2023-10-30T12:56:42.946Z,99353.91
2023-10-30T12:59:10.329Z,99348.56
2023-10-30T13:01:44.970Z,99345.75
2023-10-30T13:04:27.790Z,99346.31
2023-10-30T13:06:57.350Z,99345.19
2023-10-30T13:09:25.237Z,99355.22
2023-10-30T13:11:53.278Z,99342.81
2023-10-30T13:14:21.007Z,99336.47
2023-10-30T13:16:49.193Z,99345.47
2023-10-30T13:19:16.669Z,99346.31
2023-10-30T13:21:45.523Z,99340.25
2023-10-30T13:24:13.332Z,99344.53
2023-10-30T13:26:40.757Z,99341.78
2023-10-30T13:29:08.632Z,99352.22
2023-10-30T13:31:36.035Z,99326.16
2023-10-30T13:34:04.357Z,99318.28
2023-10-30T13:36:32.173Z,99323.94
2023-10-30T13:38:59.701Z,99313.72
2023-10-30T13:41:27.113Z,99331.91
2023-10-30T13:43:55.090Z,99323.56
2023-10-30T13:46:23.137Z,99327.84
2023-10-30T13:48:50.653Z,99338.16
2023-10-30T13:51:18.325Z,99321.84
2023-10-30T13:53:45.716Z,99315.78
2023-10-30T13:56:13.322Z,99315.41
2023-10-30T13:58:40.982Z,99313.03
2023-10-30T14:01:09.332Z,99322.00
2023-10-30T14:03:37.238Z,99317.28
2023-10-30T14:06:05.199Z,99321.25
2023-10-30T14:08:32.723Z,99325.94
2023-10-30T14:11:00.440Z,99326.50
2023-10-30T14:13:27.824Z,99324.59
2023-10-30T14:15:55.297Z,99328.38
2023-10-30T14:18:23.134Z,99318.59
2023-10-30T14:20:50.538Z,99315.59
2023-10-30T14:23:18.232Z,99326.09
2023-10-30T14:25:46.023Z,99311.53
2023-10-30T14:28:13.411Z,99323.13
2023-10-30T14:30:40.796Z,99325.34
2023-10-30T14:33:12.098Z,99319.78
2023-10-30T14:35:39.560Z,99317.13
2023-10-30T14:38:06.928Z,99315.16
2023-10-30T14:40:34.599Z,99317.56
2023-10-30T14:43:02.015Z,99319.88
2023-10-30T14:45:29.502Z,99321.38
2023-10-30T14:47:57.280Z,99320.56
2023-10-30T14:50:24.678Z,99327.06
2023-10-30T14:52:52.656Z,99322.00
2023-10-30T14:55:20.295Z,99317.03
2023-10-30T14:57:47.765Z,99312.06
2023-10-30T15:00:15.471Z,99304.69
2023-10-30T15:02:44.465Z,99299.66
2023-10-30T15:05:13.974Z,99302.19
2023-10-30T15:07:41.504Z,99297.09
2023-10-30T15:10:09.530Z,99293.47
2023-10-30T15:12:37.014Z,99297.28
2023-10-30T15:15:05.584Z,99295.34
2023-10-30T15:17:36.532Z,99310.09
2023-10-30T15:20:05.645Z,99306.69
2023-10-30T15:22:33.404Z,99305.41
2023-10-30T15:25:00.896Z,99316.16
2023-10-30T15:27:30.204Z,99312.00
2023-10-30T15:29:58.576Z,99315.19
2023-10-30T15:32:26.035Z,99317.41
2023-10-30T15:34:54.038Z,99323.75
2023-10-30T15:37:21.785Z,99318.31
2023-10-30T15:39:49.227Z,99317.19
2023-10-30T15:42:16.662Z,99318.03
2023-10-30T15:44:44.396Z,99321.59
2023-10-30T15:47:24.282Z,99332.09
2023-10-30T15:49:53.595Z,99340.25
2023-10-30T15:57:25.851Z,99323.44
2023-10-30T15:59:53.233Z,99329.19
2023-10-30T16:02:20.911Z,99325.56
2023-10-30T16:07:20.088Z,99318.72
2023-10-30T16:09:49.456Z,99310.41
2023-10-30T16:12:17.477Z,99313.59
2023-10-30T16:14:44.990Z,99321.31
2023-10-30T16:19:43.249Z,99323.75
2023-10-30T16:22:10.817Z,99325.28
2023-10-30T16:24:38.243Z,99331.09
2023-10-30T16:27:06.434Z,99332.91
2023-10-30T16:29:33.804Z,99330.19
2023-10-30T16:32:01.232Z,99334.69
2023-10-30T16:34:29.400Z,99321.38
2023-10-30T16:36:56.861Z,99314.75
2023-10-30T16:39:24.546Z,99321.69
2023-10-30T16:41:52.220Z,99313.03
2023-10-30T16:44:19.786Z,99310.84
2023-10-30T16:46:47.241Z,99316.38
2023-10-30T16:49:15.823Z,99319.94
2023-10-30T16:51:43.448Z,99304.84
2023-10-30T16:54:10.884Z,99313.88
2023-10-30T16:56:38.670Z,99313.97
2023-10-30T16:59:06.143Z,99304.22
2023-10-30T17:01:33.954Z,99308.06
2023-10-30T17:04:01.776Z,99306.72
2023-10-30T17:06:29.462Z,99311.44
2023-10-30T17:08:56.841Z,99315.25
2023-10-30T17:11:24.524Z,99312.69
2023-10-30T17:13:52.138Z,99312.72
2023-10-30T17:16:19.686Z,99321.88
2023-10-30T17:18:47.380Z,99323.59
2023-10-30T17:21:15.146Z,99326.56
2023-10-30T17:23:42.532Z,99322.34
2023-10-30T17:26:10.209Z,99321.00
2023-10-30T17:28:37.985Z,99326.53
2023-10-30T17:31:05.775Z,99313.44
2023-10-30T17:33:33.467Z,99320.47
2023-10-30T17:36:01.419Z,99315.63
2023-10-30T17:38:28.867Z,99323.47
2023-10-30T17:40:56.617Z,99318.75
2023-10-30T17:43:24.080Z,99323.31
2023-10-30T17:45:52.170Z,99319.16
2023-10-30T17:48:19.866Z,99321.34
2023-10-30T17:50:47.266Z,99321.31
2023-10-30T17:53:14.679Z,99313.19
2023-10-30T17:55:42.449Z,99313.88
2023-10-30T17:58:13.141Z,99303.66
2023-10-30T18:00:40.644Z,99323.06
2023-10-30T18:03:08.413Z,99302.75
2023-10-30T18:05:36.128Z,99308.75
2023-10-30T18:08:03.666Z,99298.91
2023-10-30T18:10:31.444Z,99296.50
2023-10-30T18:12:59.139Z,99301.03
2023-10-30T18:15:26.550Z,99294.19
2023-10-30T18:17:54.963Z,99295.03
2023-10-30T18:20:22.418Z,99299.87
2023-10-30T18:22:49.938Z,99302.59
2023-10-30T18:25:17.892Z,99300.06
2023-10-30T18:27:45.284Z,99286.31
2023-10-30T18:30:13.277Z,99286.34
2023-10-30T18:32:41.150Z,99291.81
2023-10-30T18:35:08.806Z,99289.16
2023-10-30T18:37:36.333Z,99286.72
2023-10-30T18:40:04.944Z,99292.09
2023-10-30T18:42:33.430Z,99289.69
2023-10-30T18:45:02.543Z,99291.66
2023-10-30T18:47:31.640Z,99287.06
2023-10-30T18:49:59.139Z,99287.34
2023-10-30T18:52:26.834Z,99286.34
2023-10-30T18:54:54.623Z,99277.47
2023-10-30T18:57:22.394Z,99273.38
2023-10-30T18:59:50.629Z,99283.72
2023-10-30T19:02:18.896Z,99285.69
2023-10-30T19:04:47.835Z,99276.00
2023-10-30T19:07:15.481Z,99279.34
2023-10-30T19:09:43.248Z,99266.38
2023-10-30T19:12:11.314Z,99268.94
2023-10-30T19:14:38.754Z,99256.03
2023-10-30T19:17:06.457Z,99252.53
2023-10-30T19:19:33.888Z,99249.00
2023-10-30T19:22:01.329Z,99243.06
2023-10-30T19:24:29.034Z,99235.28
2023-10-30T19:26:56.506Z,99239.87
2023-10-30T19:29:23.902Z,99253.84
2023-10-30T19:31:51.770Z,99241.13
2023-10-30T19:34:19.286Z,99241.78
2023-10-30T19:36:47.686Z,99244.38
2023-10-30T19:39:16.395Z,99245.94
2023-10-30T19:41:43.797Z,99239.87
2023-10-30T19:44:11.630Z,99240.00
2023-10-30T19:46:41.311Z,99247.91
2023-10-30T19:49:09.497Z,99241.88
2023-10-30T19:51:42.532Z,99242.78
2023-10-30T19:54:12.488Z,99244.59
2023-10-30T19:56:40.019Z,99242.00
2023-10-30T19:59:07.662Z,99229.00
2023-10-30T20:01:36.042Z,99221.44
2023-10-30T20:04:03.962Z,99211.69
2023-10-30T20:06:33.154Z,99205.91
2023-10-30T20:09:00.696Z,99214.22
2023-10-30T20:11:28.402Z,99211.81
2023-10-30T20:13:57.272Z,99214.97
2023-10-30T20:16:25.945Z,99213.94
2023-10-30T20:18:53.740Z,99216.87
2023-10-30T20:21:21.197Z,99214.28
2023-10-30T20:23:48.597Z,99213.47
2023-10-30T20:26:20.329Z,99207.25
2023-10-30T20:28:47.931Z,99207.25
2023-10-30T20:31:15.726Z,99201.28
2023-10-30T20:33:43.485Z,99187.16
2023-10-30T20:36:10.942Z,99182.69
2023-10-30T20:38:38.787Z,99182.66
2023-10-30T20:41:08.017Z,99189.81
2023-10-30T20:43:35.460Z,99189.25
2023-10-30T20:46:04.603Z,99168.69
2023-10-30T20:48:31.986Z,99157.28
2023-10-30T20:50:59.421Z,99154.25
2023-10-30T20:53:27.177Z,99152.41
2023-10-30T20:55:54.855Z,99149.41
2023-10-30T20:58:22.253Z,99150.97
2023-10-30T21:00:49.954Z,99142.00
2023-10-30T21:03:17.877Z,99157.03
2023-10-30T21:05:45.621Z,99134.91
2023-10-30T21:08:13.378Z,99137.88
2023-10-30T21:10:43.608Z,99118.78
2023-10-30T21:13:11.016Z,99124.75
2023-10-30T21:15:38.751Z,99127.47
2023-10-30T21:18:06.347Z,99124.66
2023-10-30T21:20:33.818Z,99125.25
2023-10-30T21:23:04.288Z,99112.34
2023-10-30T21:25:34.814Z,99099.06
2023-10-30T21:28:02.597Z,99103.88
2023-10-30T21:30:30.064Z,99105.69
2023-10-30T21:32:57.561Z,99099.41
2023-10-30T21:35:25.314Z,99086.91
2023-10-30T21:37:52.877Z,99087.34
2023-10-30T21:40:20.735Z,99088.94
2023-10-30T21:42:49.443Z,99083.94
2023-10-30T21:45:16.953Z,99079.53
2023-10-30T21:47:44.398Z,99074.34
2023-10-30T21:50:12.222Z,99068.00
2023-10-30T21:52:39.891Z,99065.38
2023-10-30T21:55:07.888Z,99067.72
2023-10-30T21:57:35.586Z,99063.59
2023-10-30T22:00:03.436Z,99061.41
2023-10-30T22:02:39.285Z,99052.50
2023-10-30T22:05:08.675Z,99053.50
2023-10-30T22:07:36.247Z,99053.44
2023-10-30T22:10:03.832Z,99061.66
2023-10-30T22:12:32.169Z,99063.16
2023-10-30T22:15:00.847Z,99052.41
2023-10-30T22:17:28.444Z,99046.47
2023-10-30T22:19:58.895Z,99050.81
2023-10-30T22:22:26.481Z,99038.59
2023-10-30T22:24:53.921Z,99038.50
2023-10-30T22:27:21.582Z,99047.81
2023-10-30T22:29:48.984Z,99043.94
2023-10-30T22:32:16.357Z,99036.53
2023-10-30T22:34:44.075Z,99024.13
2023-10-30T22:37:11.469Z,99022.44
2023-10-30T22:39:38.985Z,99015.88
2023-10-30T22:42:06.899Z,99024.78
2023-10-30T22:44:34.292Z,99011.91
2023-10-30T22:47:01.674Z,99023.59
2023-10-30T22:49:29.354Z,99016.19
2023-10-30T22:51:56.768Z,99012.16
2023-10-30T22:54:24.203Z,99007.56
2023-10-30T22:56:51.845Z,99010.63
2023-10-30T22:59:19.880Z,99003.91
2023-10-30T23:01:47.318Z,99011.13
2023-10-30T23:04:15.031Z,99013.59
2023-10-30T23:06:42.476Z,99014.75
2023-10-30T23:09:09.837Z,99002.28
2023-10-30T23:11:37.539Z,99005.22
2023-10-30T23:14:05.037Z,98990.84
2023-10-30T23:16:32.512Z,98998.22
2023-10-30T23:19:00.644Z,98990.31
2023-10-30T23:21:28.095Z,98989.28
2023-10-30T23:23:55.466Z,98992.97
2023-10-30T23:26:23.154Z,98985.88
2023-10-30T23:28:50.578Z,98989.19
2023-10-30T23:31:17.993Z,98994.53
2023-10-30T23:33:45.789Z,98987.34
2023-10-30T23:36:13.185Z,99002.72
2023-10-30T23:38:40.649Z,98988.69
2023-10-30T23:41:09.184Z,98986.28
2023-10-30T23:43:37.064Z,98959.84
2023-10-30T23:46:04.481Z,98966.03
2023-10-30T23:48:32.177Z,98965.44
2023-10-30T23:50:59.611Z,98953.34
2023-10-30T23:53:27.071Z,98952.72
2023-10-30T23:55:54.767Z,98939.63
2023-10-30T23:58:22.196Z,98932.75
